Time;durP1;ratioP1;P1;durP2;ratioP2;P2;SDS_P1;SDS_P2;PMS_P1;PMS_P2;Temp;Humidity;BMP_temperature;BMP_pressure;BME280_temperature;BME280_humidity;BME280_pressure;Samples;Min_cycle;Max_cycle;Signal;HPM_P1;HPM_P2
2021/05/18 00:02:22;;;;;;;0.60;0.60;;;11.90;99.90;;;;;;5030394;28;20548;-80
2021/05/18 00:04:50;;;;;;;0.40;0.40;;;12.10;99.90;;;;;;5030946;28;20854;-80
2021/05/18 00:07:20;;;;;;;0.50;0.50;;;12.10;99.90;;;;;;5032328;28;20481;-80
2021/05/18 00:12:38;;;;;;;0.50;0.40;;;11.80;99.90;;;;;;5025643;28;20489;-80
2021/05/18 00:15:11;;;;;;;2.10;0.50;;;11.90;99.90;;;;;;5026851;28;20895;-79
2021/05/18 00:17:39;;;;;;;0.40;0.40;;;12.00;1.00;;;;;;5031336;28;20459;-79
2021/05/18 00:20:10;;;;;;;0.50;0.50;;;12.00;81.70;;;;;;5063700;28;21075;-80
2021/05/18 00:22:38;;;;;;;0.40;0.40;;;12.20;99.90;;;;;;5027269;28;21083;-81
2021/05/18 00:25:09;;;;;;;0.40;0.40;;;12.20;99.90;;;;;;5031799;28;20970;-84
2021/05/18 00:27:37;;;;;;;0.50;0.50;;;11.90;99.90;;;;;;5030888;28;20473;-79
2021/05/18 00:30:09;;;;;;;0.90;0.40;;;12.00;99.90;;;;;;5063907;28;20603;-80
2021/05/18 00:32:38;;;;;;;0.60;0.50;;;12.10;75.90;;;;;;5030909;28;20494;-83
2021/05/18 00:35:08;;;;;;;0.50;0.50;;;12.20;99.90;;;;;;5030459;28;20483;-79
2021/05/18 00:37:36;;;;;;;0.40;0.40;;;12.20;99.90;;;;;;5031958;28;20986;-80
2021/05/18 00:40:06;;;;;;;0.50;0.50;;;12.00;1.00;;;;;;5030207;28;20537;-80
2021/05/18 00:42:46;;;;;;;0.40;0.40;;;12.20;1.00;;;;;;5031348;28;20476;-82
2021/05/18 00:45:15;;;;;;;1.80;0.60;;;12.20;99.90;;;;;;5029864;28;20468;-82
2021/05/18 00:47:43;;;;;;;1.17;0.50;;;12.10;99.90;;;;;;5031741;28;20452;-85
2021/05/18 00:50:12;;;;;;;0.93;0.43;;;12.10;99.90;;;;;;5031123;28;20468;-80
2021/05/18 00:52:39;;;;;;;0.40;0.40;;;12.10;1.00;;;;;;5029757;28;20479;-81
2021/05/18 00:55:18;;;;;;;0.40;0.40;;;12.20;1.00;;;;;;5030582;28;20541;-78
2021/05/18 01:00:33;;;;;;;0.40;0.40;;;12.40;1.00;;;;;;5030074;28;20485;-82
2021/05/18 01:03:01;;;;;;;0.50;0.40;;;12.40;99.90;;;;;;5030738;28;20479;-79
2021/05/18 01:08:15;;;;;;;0.40;0.40;;;12.40;1.00;;;;;;5029701;28;20867;-80
2021/05/18 01:10:43;;;;;;;0.40;0.40;;;12.60;1.00;;;;;;5030976;28;20970;-79
2021/05/18 01:13:12;;;;;;;0.47;0.43;;;12.70;99.90;;;;;;5062169;28;20482;-80
2021/05/18 01:15:40;;;;;;;0.47;0.47;;;12.60;99.90;;;;;;5029500;28;20483;-80
2021/05/18 01:18:08;;;;;;;0.60;0.60;;;12.40;1.00;;;;;;5030691;28;20518;-79
2021/05/18 01:20:38;;;;;;;1.23;0.40;;;12.30;1.00;;;;;;5031006;28;20462;-80
2021/05/18 01:23:06;;;;;;;1.33;0.40;;;12.40;1.00;;;;;;5030051;28;20551;-78
2021/05/18 01:25:34;;;;;;;0.67;0.60;;;12.40;1.00;;;;;;5030524;28;20470;-80
2021/05/18 01:28:02;;;;;;;1.37;0.40;;;12.30;99.90;;;;;;5030152;28;20477;-83
2021/05/18 01:30:30;;;;;;;0.50;0.50;;;12.40;99.90;;;;;;5029910;28;20468;-79
2021/05/18 01:32:57;;;;;;;1.37;0.47;;;12.50;99.90;;;;;;5027775;28;20489;-78
2021/05/18 01:35:25;;;;;;;0.87;0.50;;;12.50;99.90;;;;;;5030421;28;20469;-80
2021/05/18 01:37:53;;;;;;;1.10;0.50;;;12.50;99.90;;;;;;5061592;28;20474;-78
2021/05/18 01:43:09;;;;;;;0.50;0.50;;;12.60;56.70;;;;;;5029570;28;20549;-80
2021/05/18 01:45:37;;;;;;;0.50;0.50;;;12.60;99.90;;;;;;5029951;28;20526;-79
2021/05/18 01:48:09;;;;;;;0.40;0.40;;;12.50;60.40;;;;;;5027623;28;20451;-81
2021/05/18 01:50:37;;;;;;;0.50;0.50;;;12.40;99.90;;;;;;5030113;28;20898;-79
2021/05/18 01:53:08;;;;;;;1.70;0.60;;;12.40;1.00;;;;;;5029954;28;20568;-77
2021/05/18 01:55:39;;;;;;;0.93;0.87;;;12.40;1.00;;;;;;5029142;28;20509;-79
2021/05/18 01:58:07;;;;;;;0.50;0.50;;;12.30;1.00;;;;;;5026007;28;20567;-80
2021/05/18 02:00:40;;;;;;;1.60;0.40;;;12.20;1.00;;;;;;5029829;28;20480;-79
2021/05/18 02:03:08;;;;;;;0.50;0.50;;;12.40;1.00;;;;;;5029841;28;22337;-77
2021/05/18 02:05:37;;;;;;;1.43;0.67;;;12.40;99.90;;;;;;5031287;28;20503;-79
2021/05/18 02:08:10;;;;;;;0.60;0.50;;;12.50;99.90;;;;;;5034079;28;20458;-80
2021/05/18 02:10:38;;;;;;;0.70;0.50;;;12.40;99.90;;;;;;5031436;28;20464;-79
2021/05/18 02:13:06;;;;;;;0.77;0.57;;;12.40;99.90;;;;;;5034215;28;20485;-79
2021/05/18 02:15:49;;;;;;;0.50;0.50;;;12.30;99.90;;;;;;5028344;28;20815;-81
2021/05/18 02:18:52;;;;;;;1.37;0.50;;;12.30;1.00;;;;;;5031175;28;20521;-81
2021/05/18 02:21:34;;;;;;;0.50;0.50;;;12.30;1.00;;;;;;5030086;28;20482;-80
2021/05/18 02:26:53;;;;;;;1.37;0.60;;;12.20;99.90;;;;;;5032937;28;20457;-81
2021/05/18 02:29:21;;;;;;;0.77;0.50;;;12.30;54.00;;;;;;5032800;28;20458;-81
2021/05/18 02:31:49;;;;;;;0.90;0.50;;;12.40;1.00;;;;;;5030736;28;20480;-77
2021/05/18 02:34:17;;;;;;;1.37;0.50;;;12.50;99.90;;;;;;5030863;28;20509;-78
2021/05/18 02:36:44;;;;;;;0.40;0.40;;;12.40;1.00;;;;;;5033854;28;20465;-78
2021/05/18 02:39:13;;;;;;;1.53;0.60;;;12.40;99.90;;;;;;5033291;28;20571;-79
2021/05/18 02:41:41;;;;;;;0.60;0.50;;;12.20;1.00;;;;;;5031761;28;20472;-78
2021/05/18 02:44:13;;;;;;;1.37;0.50;;;12.20;99.90;;;;;;5035542;28;20466;-80
2021/05/18 02:49:26;;;;;;;0.50;0.50;;;12.30;68.60;;;;;;5033170;28;20960;-79
2021/05/18 02:51:54;;;;;;;0.50;0.50;;;12.10;99.90;;;;;;5030290;28;21006;-80
2021/05/18 02:54:24;;;;;;;0.40;0.40;;;12.30;1.00;;;;;;5030371;28;20453;-79
2021/05/18 02:56:55;;;;;;;0.50;0.50;;;12.30;99.90;;;;;;5030957;28;20200;-81
2021/05/18 02:59:23;;;;;;;0.43;0.43;;;12.20;99.90;;;;;;5031886;28;20496;-80
2021/05/18 03:01:53;;;;;;;0.80;0.40;;;12.00;1.00;;;;;;5030489;28;21003;-78
2021/05/18 03:04:22;;;;;;;1.17;0.50;;;12.10;99.90;;;;;;5028970;28;20500;-79
2021/05/18 03:06:50;;;;;;;0.80;0.80;;;12.10;1.00;;;;;;5031919;28;20454;-78
2021/05/18 03:09:18;;;;;;;0.40;0.40;;;12.10;1.00;;;;;;5027476;28;20535;-80
2021/05/18 03:11:49;;;;;;;0.50;0.50;;;12.20;1.00;;;;;;5031480;28;20482;-79
2021/05/18 03:14:17;;;;;;;0.50;0.50;;;12.10;1.00;;;;;;5031189;28;20468;-78
2021/05/18 03:16:46;;;;;;;0.60;0.60;;;12.10;99.90;;;;;;5031524;28;20454;-79
2021/05/18 03:19:14;;;;;;;5.93;1.07;;;12.10;1.00;;;;;;5030280;28;20470;-80
2021/05/18 03:21:44;;;;;;;1.13;0.60;;;12.10;99.90;;;;;;5031236;28;20679;-79
2021/05/18 03:24:13;;;;;;;0.50;0.50;;;12.10;99.90;;;;;;5032223;28;20482;-77
2021/05/18 03:26:45;;;;;;;0.40;0.40;;;12.20;1.00;;;;;;5027810;28;20450;-81
2021/05/18 03:29:17;;;;;;;0.40;0.40;;;12.30;1.00;;;;;;5030220;28;20464;-80
2021/05/18 03:34:34;;;;;;;0.43;0.40;;;12.00;1.00;;;;;;5032233;28;20476;-79
2021/05/18 03:37:06;;;;;;;0.47;0.47;;;12.00;1.00;;;;;;5027565;28;20462;-81
2021/05/18 03:39:35;;;;;;;0.50;0.50;;;12.00;99.90;;;;;;5030023;28;20476;-79
2021/05/18 03:42:06;;;;;;;0.50;0.50;;;11.90;99.90;;;;;;5026303;28;20478;-79
2021/05/18 03:44:50;;;;;;;0.50;0.50;;;11.90;1.00;;;;;;5032091;28;20869;-80
2021/05/18 03:52:59;;;;;;;0.40;0.40;;;12.00;99.90;;;;;;5030289;28;20480;-79
2021/05/18 04:03:58;;;;;;;0.40;0.40;;;11.70;99.90;;;;;;5028020;28;20468;-83
2021/05/18 04:12:12;;;;;;;0.50;0.50;;;11.80;99.90;;;;;;5029013;28;20487;-80
2021/05/18 04:17:32;;;;;;;0.40;0.40;;;11.90;99.90;;;;;;5022267;28;20472;-76
2021/05/18 04:20:12;;;;;;;0.57;0.57;;;12.10;99.90;;;;;;5026326;28;20486;-79
2021/05/18 04:22:54;;;;;;;3.50;0.50;;;12.20;99.90;;;;;;5040674;28;20476;-79
2021/05/18 04:25:44;;;;;;;0.40;0.40;;;12.10;99.40;;;;;;5027648;28;20469;-79
2021/05/18 04:39:26;;;;;;;0.43;0.43;;;11.80;99.90;;;;;;5026432;28;20880;-79
2021/05/18 04:53:12;;;;;;;0.40;0.40;;;11.40;18.50;;;;;;5025813;28;20559;-79
2021/05/18 05:01:26;;;;;;;0.40;0.40;;;11.80;1.00;;;;;;5027880;28;20538;-79
2021/05/18 05:04:03;;;;;;;0.50;0.50;;;12.00;1.00;;;;;;5026918;28;20528;-78
2021/05/18 05:06:42;;;;;;;0.50;0.50;;;12.00;99.90;;;;;;5062061;28;20475;-78
2021/05/18 05:09:19;;;;;;;0.50;0.50;;;12.10;99.90;;;;;;5029067;28;20466;-80
2021/05/18 05:14:37;;;;;;;0.60;0.50;;;12.10;1.00;;;;;;5027445;28;20462;-77
2021/05/18 05:17:06;;;;;;;0.47;0.47;;;12.00;99.90;;;;;;5026748;28;21051;-78
2021/05/18 05:19:34;;;;;;;0.60;0.60;;;12.00;1.00;;;;;;5026563;28;20536;-77
2021/05/18 05:22:05;;;;;;;0.50;0.50;;;12.10;99.90;;;;;;5059385;28;20297;-79
2021/05/18 05:24:33;;;;;;;0.70;0.70;;;12.30;99.90;;;;;;5028366;28;20468;-78
2021/05/18 05:27:01;;;;;;;0.50;0.50;;;12.20;99.90;;;;;;5024624;28;20470;-78
2021/05/18 05:29:29;;;;;;;0.60;0.50;;;12.30;1.00;;;;;;5028550;28;20516;-78
2021/05/18 05:31:57;;;;;;;0.63;0.63;;;12.00;99.90;;;;;;5024981;28;20536;-78
2021/05/18 05:34:25;;;;;;;3.47;0.77;;;11.70;99.90;;;;;;5027555;28;20487;-78
2021/05/18 05:36:52;;;;;;;1.20;0.80;;;11.50;99.90;;;;;;5027548;28;20461;-77
2021/05/18 05:39:22;;;;;;;0.80;0.70;;;11.70;99.90;;;;;;5023080;28;20831;-77
2021/05/18 05:41:51;;;;;;;1.23;0.73;;;11.60;1.00;;;;;;5056847;28;20493;-75
2021/05/18 05:44:19;;;;;;;0.67;0.67;;;11.40;99.90;;;;;;5027221;28;20549;-79
2021/05/18 05:46:46;;;;;;;0.80;0.80;;;11.50;1.00;;;;;;5026464;28;20471;-77
2021/05/18 05:49:14;;;;;;;0.73;0.70;;;11.40;1.00;;;;;;5028808;28;20514;-78
2021/05/18 05:51:42;;;;;;;1.00;0.90;;;11.60;99.90;;;;;;5027805;28;20554;-76
2021/05/18 05:54:10;;;;;;;0.80;0.80;;;11.50;99.90;;;;;;5028550;28;20487;-77
2021/05/18 05:56:39;;;;;;;1.00;0.90;;;11.30;1.00;;;;;;5027388;28;20488;-77
2021/05/18 05:59:08;;;;;;;0.67;0.67;;;11.50;1.00;;;;;;5026535;28;20468;-77
2021/05/18 06:01:36;;;;;;;0.70;0.60;;;11.80;1.00;;;;;;5027371;28;20501;-78
2021/05/18 06:04:04;;;;;;;0.70;0.63;;;11.70;1.00;;;;;;5027428;28;20450;-76
2021/05/18 06:06:32;;;;;;;0.60;0.60;;;11.80;1.00;;;;;;5026992;28;21115;-78
2021/05/18 06:09:00;;;;;;;0.87;0.80;;;11.80;1.00;;;;;;5025964;28;20468;-75
2021/05/18 06:11:35;;;;;;;0.77;0.73;;;11.70;1.00;;;;;;5024377;28;20468;-78
2021/05/18 06:14:16;;;;;;;1.53;0.80;;;11.50;74.80;;;;;;5027014;28;21046;-79
2021/05/18 06:41:31;;;;;;;0.60;0.60;;;12.60;99.90;;;;;;5057453;28;20538;-78
2021/05/18 06:46:55;;;;;;;0.70;0.70;;;12.90;99.90;;;;;;5033178;28;20474;-78
2021/05/18 06:49:23;;;;;;;0.83;0.67;;;13.10;99.90;;;;;;5022411;28;20467;-77
2021/05/18 06:51:51;;;;;;;0.70;0.70;;;13.30;1.00;;;;;;5023828;28;20481;-77
2021/05/18 06:54:18;;;;;;;0.63;0.63;;;13.40;1.00;;;;;;5026548;28;20512;-77
2021/05/18 06:56:49;;;;;;;0.43;0.43;;;13.50;99.90;;;;;;5025115;28;20450;-78
2021/05/18 07:02:03;;;;;;;0.90;0.65;;;13.50;99.90;;;;;;5024030;28;20454;-75
2021/05/18 07:04:32;;;;;;;1.00;0.80;;;13.70;99.90;;;;;;5024200;28;20211;-77
2021/05/18 07:07:07;;;;;;;1.63;0.97;;;14.00;91.60;;;;;;5026821;28;20524;-78
2021/05/18 07:09:35;;;;;;;0.80;0.70;;;14.40;99.90;;;;;;5026643;28;20496;-77
2021/05/18 07:12:04;;;;;;;0.70;0.70;;;14.60;1.00;;;;;;5023239;28;20479;-77
2021/05/18 07:14:31;;;;;;;1.03;0.60;;;14.50;1.00;;;;;;5026554;28;20454;-78
2021/05/18 07:16:59;;;;;;;1.37;0.80;;;14.40;1.00;;;;;;5026252;28;21001;-77
2021/05/18 07:19:27;;;;;;;1.40;0.67;;;14.30;1.00;;;;;;5024331;28;20462;-77
2021/05/18 07:21:55;;;;;;;0.60;0.60;;;14.20;1.00;;;;;;5022911;28;21122;-77
2021/05/18 07:24:26;;;;;;;0.80;0.70;;;14.30;1.00;;;;;;5024379;28;21031;-77
2021/05/18 07:26:54;;;;;;;1.43;0.60;;;14.30;1.00;;;;;;5022798;28;20464;-77
2021/05/18 07:29:22;;;;;;;0.67;0.67;;;14.00;1.00;;;;;;5024716;28;20529;-78
2021/05/18 07:31:49;;;;;;;1.60;0.60;;;14.00;1.00;;;;;;5024834;28;20476;-78
2021/05/18 07:34:17;;;;;;;1.17;0.80;;;14.00;1.00;;;;;;5025166;28;20481;-77
2021/05/18 07:36:46;;;;;;;1.63;0.60;;;14.00;1.00;;;;;;5024388;28;21061;-78
2021/05/18 07:39:13;;;;;;;0.80;0.60;;;13.80;1.00;;;;;;5056538;28;20471;-78
2021/05/18 07:41:41;;;;;;;0.63;0.63;;;13.60;1.00;;;;;;5025912;28;20498;-78
2021/05/18 07:44:09;;;;;;;1.40;1.10;;;13.70;1.00;;;;;;5026774;28;20463;-77
2021/05/18 07:46:39;;;;;;;1.20;0.67;;;13.60;1.00;;;;;;5023510;28;20532;-77
2021/05/18 07:49:18;;;;;;;1.00;0.87;;;13.50;1.00;;;;;;5022728;28;20538;-77
2021/05/18 08:00:06;;;;;;;1.40;0.97;;;13.20;99.90;;;;;;5038218;28;20508;-77
2021/05/18 08:05:20;;;;;;;0.97;0.70;;;13.40;99.90;;;;;;5026710;28;20966;-79
2021/05/18 08:07:53;;;;;;;3.70;0.80;;;13.40;56.50;;;;;;5025433;28;20902;-80
2021/05/18 08:10:24;;;;;;;0.60;0.60;;;13.50;35.60;;;;;;5026041;28;20517;-79
2021/05/18 08:12:51;;;;;;;0.80;0.80;;;13.60;1.00;;;;;;5024402;28;20483;-79
2021/05/18 08:15:37;;;;;;;3.40;1.00;;;13.70;1.00;;;;;;5026952;28;20464;-79
2021/05/18 08:18:10;;;;;;;0.67;0.67;;;13.70;1.00;;;;;;5024903;28;20463;-80
2021/05/18 08:20:52;;;;;;;1.70;0.70;;;13.60;1.00;;;;;;5023198;28;20496;-79
2021/05/18 10:35:01;;;;;;;0.70;0.60;;;15.20;99.90;;;;;;5028591;28;20457;-79
2021/05/18 10:37:41;;;;;;;0.93;0.70;;;15.40;99.90;;;;;;5022020;28;20501;-80
2021/05/18 10:40:30;;;;;;;1.20;0.60;;;15.50;99.90;;;;;;5026167;28;20481;-81
2021/05/18 10:43:29;;;;;;;0.80;0.57;;;15.50;99.90;;;;;;5040192;28;20490;-81
2021/05/18 10:46:24;;;;;;;1.30;0.50;;;15.50;99.90;;;;;;5061199;28;20874;-79
2021/05/18 10:49:06;;;;;;;0.60;0.50;;;15.30;99.90;;;;;;5027707;28;20441;-81
2021/05/18 10:51:56;;;;;;;3.20;0.70;;;15.50;99.90;;;;;;5028546;28;20221;-81
2021/05/18 10:54:28;;;;;;;0.70;0.57;;;15.60;99.90;;;;;;5022768;28;20490;-80
2021/05/18 10:57:29;;;;;;;0.80;0.70;;;15.90;99.90;;;;;;5025943;28;20843;-80
2021/05/18 11:00:00;;;;;;;1.60;0.50;;;15.90;99.90;;;;;;5025879;28;21021;-80
2021/05/18 11:02:31;;;;;;;0.67;0.40;;;16.00;99.90;;;;;;5026928;28;20480;-80
2021/05/18 11:05:02;;;;;;;1.37;0.50;;;16.00;99.90;;;;;;5066759;28;20573;-80
2021/05/18 11:07:33;;;;;;;2.20;0.87;;;15.80;99.90;;;;;;5027446;28;20495;-81
2021/05/18 11:10:02;;;;;;;1.00;0.60;;;15.70;99.90;;;;;;5029180;28;20441;-81
2021/05/18 11:12:31;;;;;;;0.50;0.50;;;15.80;99.90;;;;;;5032733;28;20595;-80
2021/05/18 11:15:10;;;;;;;0.60;0.50;;;15.70;99.90;;;;;;5033383;28;21084;-81
2021/05/18 11:17:40;;;;;;;1.20;0.60;;;15.60;99.90;;;;;;5034111;28;20465;-83
2021/05/18 11:20:13;;;;;;;1.20;0.50;;;15.50;99.90;;;;;;5033026;28;20471;-84
2021/05/18 11:25:48;;;;;;;0.97;0.67;;;15.50;99.90;;;;;;5033798;28;20963;-82
2021/05/18 11:28:20;;;;;;;2.73;0.57;;;15.50;99.90;;;;;;5029684;28;20513;-80
2021/05/18 11:30:50;;;;;;;2.30;0.50;;;15.30;99.90;;;;;;5029459;28;20461;-83
2021/05/18 11:33:19;;;;;;;0.83;0.50;;;15.00;99.90;;;;;;5024642;28;20481;-79
2021/05/18 11:36:00;;;;;;;2.10;0.60;;;14.90;99.90;;;;;;5060501;28;20459;-79
2021/05/18 11:38:29;;;;;;;4.60;0.70;;;14.50;99.90;;;;;;5028256;28;20459;-78
2021/05/18 11:40:57;;;;;;;0.93;0.70;;;14.20;99.90;;;;;;5024139;28;20491;-77
2021/05/18 11:43:33;;;;;;;0.40;0.40;;;14.20;99.90;;;;;;5028271;28;20860;-80
2021/05/18 11:46:07;;;;;;;1.73;0.50;;;14.20;99.90;;;;;;5024459;28;20545;-79
2021/05/18 11:48:35;;;;;;;0.70;0.50;;;14.10;99.90;;;;;;5026193;28;20508;-80
2021/05/18 11:51:06;;;;;;;1.07;0.50;;;14.20;99.90;;;;;;5028096;28;20557;-80
2021/05/18 11:53:41;;;;;;;0.87;0.40;;;14.30;99.90;;;;;;5030851;28;20889;-80
2021/05/18 11:56:22;;;;;;;2.10;0.50;;;14.40;99.90;;;;;;5024779;28;20464;-79
2021/05/18 11:58:58;;;;;;;0.70;0.40;;;14.30;99.90;;;;;;5025612;28;20467;-80
2021/05/18 12:01:26;;;;;;;1.00;0.50;;;14.30;99.90;;;;;;5030838;28;20497;-80
2021/05/18 12:04:06;;;;;;;0.73;0.57;;;14.50;99.90;;;;;;5024670;28;20552;-79
2021/05/18 12:06:35;;;;;;;0.90;0.50;;;14.60;99.90;;;;;;5027279;28;20473;-80
2021/05/18 12:09:05;;;;;;;0.83;0.43;;;14.80;99.90;;;;;;5026862;28;20531;-79
2021/05/18 12:11:33;;;;;;;1.60;0.50;;;15.00;99.90;;;;;;5025432;28;20486;-79
2021/05/18 12:14:10;;;;;;;0.80;0.60;;;15.10;99.90;;;;;;5025653;28;20482;-78
2021/05/18 12:16:41;;;;;;;1.47;0.60;;;15.20;99.90;;;;;;5026388;28;20538;-79
2021/05/18 12:19:12;;;;;;;2.53;0.60;;;15.40;99.90;;;;;;5024383;28;20971;-78
2021/05/18 12:21:40;;;;;;;2.30;0.50;;;15.60;99.90;;;;;;5024063;28;20488;-79
2021/05/18 12:24:11;;;;;;;1.63;0.67;;;15.60;99.90;;;;;;5024141;28;20473;-78
2021/05/18 12:26:49;;;;;;;0.70;0.50;;;15.70;99.90;;;;;;5037368;28;20458;-78
2021/05/18 12:29:37;;;;;;;1.57;0.50;;;15.80;99.90;;;;;;5023037;28;20470;-78
2021/05/18 12:32:19;;;;;;;0.70;0.60;;;15.80;99.90;;;;;;5024681;28;20484;-78
2021/05/18 12:34:49;;;;;;;1.97;0.53;;;15.50;99.90;;;;;;5025972;28;20491;-78
2021/05/18 12:37:17;;;;;;;0.60;0.60;;;15.40;99.90;;;;;;5025760;28;20455;-78
2021/05/18 12:39:47;;;;;;;1.27;0.50;;;15.30;99.90;;;;;;5030585;28;20545;-77
2021/05/18 12:42:24;;;;;;;12.10;2.00;;;15.20;99.90;;;;;;5026900;28;20491;-78
2021/05/18 12:44:55;;;;;;;1.07;0.50;;;15.20;99.90;;;;;;5043032;28;20463;-78
2021/05/18 12:47:29;;;;;;;3.70;0.80;;;15.10;99.90;;;;;;5030329;28;20463;-79
2021/05/18 12:49:58;;;;;;;0.50;0.50;;;15.00;99.90;;;;;;5030755;28;20470;-77
2021/05/18 12:52:35;;;;;;;0.50;0.50;;;14.70;99.90;;;;;;5031982;28;20476;-79
2021/05/18 12:55:14;;;;;;;1.37;0.50;;;14.40;99.90;;;;;;5024298;28;20477;-78
2021/05/18 12:57:54;;;;;;;1.20;0.50;;;14.40;99.90;;;;;;5024529;28;20529;-79
2021/05/18 13:00:25;;;;;;;1.97;0.90;;;14.50;99.90;;;;;;5025062;28;20460;-78
2021/05/18 13:02:53;;;;;;;1.47;0.50;;;14.50;99.90;;;;;;5023439;28;20482;-78
2021/05/18 13:05:23;;;;;;;0.97;0.60;;;14.70;99.90;;;;;;5026052;28;20564;-78
2021/05/18 13:08:16;;;;;;;2.00;0.57;;;14.60;99.90;;;;;;5026903;28;20469;-78
2021/05/18 13:10:56;;;;;;;0.67;0.57;;;14.70;99.90;;;;;;5024288;28;20459;-79
2021/05/18 13:13:25;;;;;;;1.00;0.60;;;14.70;99.90;;;;;;5021642;28;20455;-79
2021/05/18 13:16:08;;;;;;;2.40;0.60;;;14.50;99.90;;;;;;5024037;28;20205;-79
2021/05/18 13:18:39;;;;;;;1.07;0.50;;;14.60;99.90;;;;;;5038096;28;21072;-79
2021/05/18 13:21:07;;;;;;;0.77;0.77;;;14.50;99.90;;;;;;5055692;28;20604;-79
2021/05/18 13:23:42;;;;;;;2.70;0.60;;;14.50;99.90;;;;;;5021283;28;20488;-79
2021/05/18 13:26:26;;;;;;;0.87;0.80;;;14.50;99.90;;;;;;5023233;28;20449;-78
2021/05/18 13:28:59;;;;;;;0.83;0.50;;;14.60;99.90;;;;;;5023202;28;20506;-79
2021/05/18 13:31:29;;;;;;;0.60;0.60;;;14.50;99.90;;;;;;5023226;28;20461;-80
2021/05/18 13:33:58;;;;;;;0.77;0.60;;;14.50;99.90;;;;;;5025377;28;20453;-80
2021/05/18 13:36:42;;;;;;;1.10;0.60;;;14.40;99.90;;;;;;5022570;28;20455;-79
2021/05/18 13:39:13;;;;;;;0.80;0.53;;;14.30;99.90;;;;;;5028175;28;20733;-79
2021/05/18 13:41:41;;;;;;;2.03;0.70;;;14.40;99.90;;;;;;5028923;28;20542;-78
2021/05/18 13:44:09;;;;;;;0.60;0.60;;;14.40;99.90;;;;;;5024477;28;20484;-78
2021/05/18 13:46:38;;;;;;;0.60;0.60;;;14.50;99.90;;;;;;5021575;28;20459;-77
2021/05/18 13:49:12;;;;;;;0.73;0.70;;;14.70;99.90;;;;;;5019657;28;20860;-78
2021/05/18 13:51:40;;;;;;;0.50;0.50;;;14.50;99.90;;;;;;5023926;28;20537;-79
2021/05/18 13:54:23;;;;;;;0.40;0.40;;;14.40;99.90;;;;;;5020220;28;20464;-78
2021/05/18 13:56:51;;;;;;;0.50;0.50;;;14.50;99.90;;;;;;5028133;28;20968;-80
2021/05/18 13:59:18;;;;;;;0.40;0.40;;;14.70;99.90;;;;;;5027571;28;20445;-79
2021/05/18 14:01:47;;;;;;;0.70;0.50;;;14.80;99.90;;;;;;5026642;28;20510;-79
2021/05/18 14:04:15;;;;;;;0.43;0.40;;;14.80;99.90;;;;;;5031339;28;20474;-80
2021/05/18 14:07:03;;;;;;;0.80;0.50;;;14.70;99.90;;;;;;5030885;28;20467;-80
2021/05/18 14:09:31;;;;;;;1.00;0.40;;;14.60;99.90;;;;;;5034466;28;20525;-80
2021/05/18 14:11:58;;;;;;;2.97;0.50;;;14.60;99.90;;;;;;5030872;28;20552;-79
2021/05/18 14:14:26;;;;;;;0.70;0.60;;;14.60;99.90;;;;;;5027548;28;21107;-80
2021/05/18 14:16:55;;;;;;;1.00;0.90;;;14.40;99.90;;;;;;5030448;28;20465;-80
2021/05/18 14:19:23;;;;;;;0.80;0.60;;;14.20;99.90;;;;;;5033265;28;20473;-79
2021/05/18 14:21:52;;;;;;;1.40;0.80;;;14.40;99.90;;;;;;5042411;28;20223;-80
2021/05/18 14:24:22;;;;;;;1.87;0.80;;;14.50;99.90;;;;;;5035030;28;20484;-79
2021/05/18 14:26:50;;;;;;;2.60;1.40;;;14.70;99.90;;;;;;5027579;28;20455;-80
2021/05/18 14:29:17;;;;;;;1.37;1.00;;;14.80;99.90;;;;;;5028800;28;20461;-78
2021/05/18 14:31:45;;;;;;;2.10;0.60;;;14.80;99.90;;;;;;5032952;28;20472;-80
2021/05/18 14:34:14;;;;;;;0.50;0.50;;;14.80;99.90;;;;;;5063729;28;20498;-79
2021/05/18 14:36:42;;;;;;;0.50;0.50;;;14.90;99.90;;;;;;5034470;28;20825;-80
2021/05/18 14:39:11;;;;;;;0.40;0.40;;;14.90;99.90;;;;;;5035606;28;20452;-80
2021/05/18 14:44:25;;;;;;;0.63;0.43;;;14.70;99.90;;;;;;5032926;28;20477;-80
2021/05/18 14:46:59;;;;;;;1.07;0.40;;;14.70;99.90;;;;;;5032757;28;20534;-80
2021/05/18 14:55:17;;;;;;;1.43;0.50;;;14.90;99.90;;;;;;4990366;28;20554;-80
2021/05/18 14:57:46;;;;;;;1.53;0.60;;;14.90;99.90;;;;;;5007414;28;20485;-79
2021/05/18 15:00:15;;;;;;;2.80;0.90;;;15.00;99.90;;;;;;5044316;28;20477;-79
2021/05/18 15:02:42;;;;;;;0.80;0.60;;;15.10;99.90;;;;;;5034999;28;20239;-80
2021/05/18 15:05:11;;;;;;;1.33;0.53;;;15.20;99.90;;;;;;5035320;28;20956;-80
2021/05/18 15:07:42;;;;;;;0.60;0.50;;;15.10;99.90;;;;;;5036639;28;20556;-80
2021/05/18 15:10:11;;;;;;;2.47;0.60;;;15.30;99.90;;;;;;5029258;28;20493;-81
2021/05/18 15:12:39;;;;;;;1.70;0.60;;;15.40;99.90;;;;;;5030550;28;20479;-80
2021/05/18 15:15:08;;;;;;;1.33;0.63;;;15.60;99.90;;;;;;5025081;28;20503;-78
2021/05/18 15:17:36;;;;;;;0.80;0.50;;;15.60;99.90;;;;;;5038658;28;20449;-79
2021/05/18 15:20:05;;;;;;;0.57;0.50;;;15.40;99.90;;;;;;5030225;28;20765;-79
2021/05/18 15:22:35;;;;;;;1.27;0.60;;;15.40;99.90;;;;;;5025451;28;20491;-79
2021/05/18 15:25:03;;;;;;;0.57;0.50;;;15.50;99.90;;;;;;5023918;28;20464;-80
2021/05/18 15:27:30;;;;;;;1.13;0.50;;;15.30;99.90;;;;;;5041655;28;20450;-79
2021/05/18 15:29:58;;;;;;;0.47;0.47;;;15.20;99.90;;;;;;5028391;28;20455;-79
2021/05/18 15:32:26;;;;;;;0.70;0.50;;;15.30;99.90;;;;;;5024928;28;20487;-80
2021/05/18 15:34:54;;;;;;;1.83;0.43;;;15.10;99.90;;;;;;5025458;28;20460;-81
2021/05/18 15:37:21;;;;;;;1.80;0.60;;;15.00;99.90;;;;;;5025766;28;20717;-79
2021/05/18 15:39:51;;;;;;;0.80;0.50;;;15.00;99.90;;;;;;5024462;28;20526;-81
2021/05/18 15:42:19;;;;;;;0.50;0.50;;;14.90;99.90;;;;;;5025300;28;20506;-79
2021/05/18 15:44:47;;;;;;;0.80;0.53;;;14.80;99.90;;;;;;5024301;28;20478;-79
2021/05/18 15:47:15;;;;;;;1.13;0.50;;;14.80;99.90;;;;;;5027675;28;20556;-78
2021/05/18 15:49:42;;;;;;;1.10;0.70;;;15.00;99.90;;;;;;5029248;28;20448;-79
2021/05/18 15:52:10;;;;;;;0.70;0.70;;;15.10;99.90;;;;;;5024064;28;20972;-80
2021/05/18 15:54:38;;;;;;;0.60;0.60;;;14.90;99.90;;;;;;5021972;28;20200;-79
2021/05/18 15:57:06;;;;;;;0.67;0.50;;;14.80;99.90;;;;;;5025365;28;20519;-80
2021/05/18 15:59:35;;;;;;;0.87;0.63;;;14.90;99.90;;;;;;5054894;28;20471;-79
2021/05/18 16:02:03;;;;;;;0.40;0.40;;;14.90;99.90;;;;;;5033864;28;20489;-80
2021/05/18 16:04:31;;;;;;;0.60;0.50;;;14.60;99.90;;;;;;5020036;28;20471;-78
2021/05/18 16:07:06;;;;;;;1.30;0.90;;;14.40;99.90;;;;;;5019204;28;21121;-79
2021/05/18 16:09:35;;;;;;;0.87;0.60;;;14.40;99.90;;;;;;5018992;28;20461;-79
2021/05/18 16:12:03;;;;;;;1.13;0.80;;;14.30;99.90;;;;;;5025896;28;20490;-79
2021/05/18 16:14:31;;;;;;;1.17;0.50;;;14.40;99.90;;;;;;5024692;28;20463;-80
2021/05/18 16:16:59;;;;;;;2.30;0.60;;;14.50;99.90;;;;;;5030051;28;20547;-79
2021/05/18 16:19:27;;;;;;;0.87;0.60;;;14.60;99.90;;;;;;5030081;28;20515;-79
2021/05/18 16:21:55;;;;;;;0.67;0.67;;;14.60;99.90;;;;;;5029439;28;20494;-79
2021/05/18 16:24:25;;;;;;;0.95;0.80;;;14.30;99.90;;;;;;5020573;28;20457;-79
2021/05/18 16:26:53;;;;;;;2.63;0.77;;;14.50;99.90;;;;;;5030164;28;20187;-79
2021/05/18 16:29:21;;;;;;;1.20;0.80;;;14.30;99.90;;;;;;5032144;28;20446;-79
2021/05/18 16:31:50;;;;;;;1.07;0.70;;;14.50;99.90;;;;;;5043730;28;20490;-78
2021/05/18 16:34:17;;;;;;;3.20;0.70;;;14.40;99.90;;;;;;5022551;28;20463;-78
2021/05/18 16:36:45;;;;;;;0.80;0.60;;;14.20;99.90;;;;;;5029747;28;20970;-79
2021/05/18 16:39:14;;;;;;;0.63;0.63;;;14.30;99.90;;;;;;5035634;28;20499;-78
2021/05/18 16:41:43;;;;;;;4.10;3.70;;;14.50;99.90;;;;;;5028580;28;20491;-79
2021/05/18 16:44:11;;;;;;;0.93;0.57;;;14.60;99.90;;;;;;5028734;28;20489;-79
2021/05/18 16:46:39;;;;;;;1.50;0.60;;;14.50;99.90;;;;;;5029274;28;20483;-79
2021/05/18 16:49:08;;;;;;;2.00;0.60;;;14.40;99.90;;;;;;5023886;28;20482;-79
2021/05/18 16:51:38;;;;;;;0.60;0.50;;;14.30;99.90;;;;;;5024323;28;20501;-80
2021/05/18 16:54:07;;;;;;;2.00;0.50;;;14.40;99.90;;;;;;5030305;28;20449;-79
2021/05/18 16:56:35;;;;;;;1.37;0.70;;;14.20;99.90;;;;;;5022775;28;20455;-79
2021/05/18 16:59:04;;;;;;;0.70;0.60;;;14.40;99.90;;;;;;5022312;28;20453;-78
2021/05/18 17:01:32;;;;;;;0.80;0.50;;;14.50;99.90;;;;;;5023870;28;20204;-79
2021/05/18 17:04:17;;;;;;;0.57;0.50;;;14.60;99.90;;;;;;5022383;28;20980;-79
2021/05/18 17:06:46;;;;;;;3.43;0.60;;;14.50;99.90;;;;;;5024047;28;20459;-79
2021/05/18 17:09:14;;;;;;;1.20;0.60;;;14.50;99.90;;;;;;5026219;28;20456;-79
2021/05/18 17:11:43;;;;;;;1.00;0.70;;;14.70;99.90;;;;;;5051460;28;20472;-78
2021/05/18 17:14:12;;;;;;;0.50;0.50;;;14.80;99.90;;;;;;5027105;28;20894;-79
2021/05/18 17:16:40;;;;;;;0.43;0.40;;;14.90;99.90;;;;;;5024349;28;20496;-79
2021/05/18 17:19:08;;;;;;;0.80;0.50;;;14.90;99.90;;;;;;5024149;28;21026;-79
2021/05/18 17:21:37;;;;;;;1.23;0.60;;;14.90;99.90;;;;;;5024033;28;20472;-79
2021/05/18 17:24:07;;;;;;;0.50;0.50;;;14.80;99.90;;;;;;5022175;28;20610;-79
2021/05/18 17:26:35;;;;;;;0.80;0.60;;;14.90;99.90;;;;;;5024507;28;20466;-78